Datum - Zeit
Döttingen
TemperaturTaupunktFeuchteSolar Wind aus
Richtung
Windböenaus
Richtung
Luftdruck
(QFF)
RegenRegen
Stärke
24.07.2017 - 00.00Uhr17.6 °C14.0 °C79 %0.0 W/m²0.8 km/hWest-NW1.8 km/hWest-NW1014.4 hPa0.0 mm0.0 mm/h
24.07.2017 - 00.05Uhr17.6 °C14.0 °C80 %0.0 W/m²0.0 km/hWest-NW0.0 km/hNorden1014.4 hPa0.0 mm0.0 mm/h
24.07.2017 - 00.10Uhr17.6 °C14.1 °C80 %0.0 W/m²0.0 km/hWest-NW0.0 km/hNorden1014.4 hPa0.0 mm0.0 mm/h
24.07.2017 - 00.15Uhr17.6 °C14.0 °C79 %0.0 W/m²0.0 km/hWest-NW0.0 km/hNorden1014.2 hPa0.0 mm0.0 mm/h
24.07.2017 - 00.20Uhr17.6 °C13.9 °C79 %0.0 W/m²0.9 km/hWest-NW1.8 km/hWest-NW1014.2 hPa0.0 mm0.0 mm/h
24.07.2017 - 00.25Uhr17.7 °C13.8 °C78 %0.0 W/m²0.0 km/hWest-NW0.0 km/hNorden1014.1 hPa0.0 mm0.0 mm/h
24.07.2017 - 00.30Uhr17.5 °C13.8 °C79 %0.0 W/m²0.0 km/hWest-NW0.0 km/hNorden1014.1 hPa0.0 mm0.0 mm/h
24.07.2017 - 00.35Uhr17.4 °C13.5 °C78 %0.0 W/m²0.0 km/hWest-NW0.0 km/hNorden1013.9 hPa0.0 mm0.0 mm/h
24.07.2017 - 00.40Uhr17.1 °C13.6 °C80 %0.0 W/m²0.0 km/hWest-NW0.0 km/hNorden1013.9 hPa0.0 mm0.0 mm/h
24.07.2017 - 00.45Uhr17.2 °C13.8 °C81 %0.0 W/m²0.0 km/hWest-NW0.0 km/hNorden1013.8 hPa0.0 mm0.0 mm/h
24.07.2017 - 00.50Uhr17.1 °C13.9 °C82 %0.0 W/m²0.7 km/hWest-NW1.8 km/hWest-NW1013.8 hPa0.0 mm0.0 mm/h
24.07.2017 - 00.55Uhr16.8 °C14.1 °C84 %0.0 W/m²0.9 km/hWest-NW4.0 km/hWest-NW1013.8 hPa0.0 mm0.0 mm/h
24.07.2017 - 01.00Uhr16.7 °C14.0 °C84 %0.0 W/m²0.8 km/hWest-NW1.8 km/hWest-NW1013.8 hPa0.0 mm0.0 mm/h
24.07.2017 - 01.05Uhr16.7 °C14.0 °C84 %0.0 W/m²0.0 km/hWest-NW0.0 km/hNorden1013.8 hPa0.0 mm0.0 mm/h
24.07.2017 - 01.10Uhr16.8 °C14.1 °C84 %0.0 W/m²0.5 km/hWest-NW1.8 km/hWest-NW1013.7 hPa0.0 mm0.0 mm/h
24.07.2017 - 01.15Uhr16.8 °C14.1 °C84 %0.0 W/m²0.0 km/hWest-NW0.0 km/hNorden1013.7 hPa0.0 mm0.0 mm/h
24.07.2017 - 01.20Uhr16.9 °C14.0 °C83 %0.0 W/m²0.0 km/hWest-NW0.0 km/hNorden1013.6 hPa0.0 mm0.0 mm/h
24.07.2017 - 01.25Uhr16.9 °C14.0 °C83 %0.0 W/m²0.0 km/hWest-NW0.0 km/hNorden1013.5 hPa0.0 mm0.0 mm/h
24.07.2017 - 01.30Uhr16.9 °C14.0 °C83 %0.0 W/m²0.0 km/hWest-NW0.0 km/hNorden1013.5 hPa0.0 mm0.0 mm/h
24.07.2017 - 01.35Uhr16.9 °C14.1 °C84 %0.0 W/m²0.5 km/hWest-NW1.8 km/hWest-NW1013.4 hPa0.0 mm0.0 mm/h
24.07.2017 - 01.40Uhr16.8 °C14.1 °C84 %0.0 W/m²0.0 km/hWest-NW0.0 km/hNorden1013.3 hPa0.0 mm0.0 mm/h
24.07.2017 - 01.45Uhr16.8 °C14.0 °C83 %0.0 W/m²0.0 km/hWest-NW0.0 km/hNorden1013.3 hPa0.0 mm0.0 mm/h
24.07.2017 - 01.50Uhr16.9 °C14.0 °C83 %0.0 W/m²0.0 km/hWest-NW0.0 km/hNorden1013.2 hPa0.0 mm0.0 mm/h
24.07.2017 - 01.55Uhr16.8 °C13.9 °C83 %0.0 W/m²0.0 km/hWest-NW0.0 km/hNorden1013.2 hPa0.0 mm0.0 mm/h
24.07.2017 - 02.00Uhr16.6 °C14.0 °C84 %0.0 W/m²0.0 km/hWest-NW0.0 km/hNorden1013.2 hPa0.0 mm0.0 mm/h
24.07.2017 - 02.05Uhr16.6 °C13.9 °C84 %0.0 W/m²0.3 km/hWest-NW1.8 km/hWest-NW1013.1 hPa0.0 mm0.0 mm/h
24.07.2017 - 02.10Uhr16.7 °C13.9 °C84 %0.0 W/m²0.0 km/hWest-NW0.0 km/hNorden1013.0 hPa0.0 mm0.0 mm/h
24.07.2017 - 02.15Uhr16.4 °C13.8 °C85 %0.0 W/m²1.2 km/hWest-NW4.0 km/hWest-NW1013.0 hPa0.0 mm0.0 mm/h
24.07.2017 - 02.20Uhr16.3 °C13.8 °C85 %0.0 W/m²0.3 km/hWest-NW1.8 km/hWest-NW1012.9 hPa0.0 mm0.0 mm/h
24.07.2017 - 02.25Uhr16.5 °C13.7 °C84 %0.0 W/m²0.0 km/hWest-NW0.0 km/hNorden1012.8 hPa0.0 mm0.0 mm/h
24.07.2017 - 02.30Uhr16.6 °C13.7 °C83 %0.0 W/m²0.5 km/hWest-NW1.8 km/hWest-NW1012.6 hPa0.0 mm0.0 mm/h
24.07.2017 - 02.35Uhr16.7 °C14.1 °C85 %0.0 W/m²0.8 km/hWest-NW1.8 km/hWest-NW1012.4 hPa0.0 mm0.0 mm/h
24.07.2017 - 02.40Uhr16.4 °C13.9 °C85 %0.0 W/m²0.0 km/hWest-NW0.0 km/hNorden1012.4 hPa0.0 mm0.0 mm/h
24.07.2017 - 02.45Uhr16.3 °C14.0 °C86 %0.0 W/m²0.0 km/hWest-NW0.0 km/hNorden1012.4 hPa0.0 mm0.0 mm/h
24.07.2017 - 02.50Uhr16.2 °C13.8 °C86 %0.0 W/m²0.0 km/hWest-NW0.0 km/hNorden1012.2 hPa0.0 mm0.0 mm/h
24.07.2017 - 02.55Uhr16.2 °C13.9 °C86 %0.0 W/m²0.0 km/hWest-NW0.0 km/hNorden1012.2 hPa0.0 mm0.0 mm/h
24.07.2017 - 03.00Uhr16.1 °C13.8 °C86 %0.0 W/m²0.0 km/hWest-NW0.0 km/hNorden1012.1 hPa0.0 mm0.0 mm/h
24.07.2017 - 03.05Uhr16.0 °C13.7 °C86 %0.0 W/m²0.4 km/hWest-NW1.8 km/hWest-NW1012.0 hPa0.0 mm0.0 mm/h
24.07.2017 - 03.10Uhr15.6 °C13.4 °C87 %0.0 W/m²2.5 km/hWest-NW4.0 km/hWest-NW1011.9 hPa0.0 mm0.0 mm/h
24.07.2017 - 03.15Uhr15.3 °C13.3 °C88 %0.0 W/m²1.5 km/hWest-NW4.0 km/hWest-NW1011.9 hPa0.0 mm0.0 mm/h
24.07.2017 - 03.20Uhr15.3 °C13.3 °C88 %0.0 W/m²0.0 km/hWest-NW0.0 km/hNorden1011.8 hPa0.0 mm0.0 mm/h
24.07.2017 - 03.25Uhr15.2 °C13.1 °C87 %0.0 W/m²0.0 km/hWest-NW0.0 km/hNorden1011.8 hPa0.0 mm0.0 mm/h
24.07.2017 - 03.30Uhr15.0 °C12.9 °C87 %0.0 W/m²0.0 km/hWest-NW0.0 km/hNorden1011.8 hPa0.0 mm0.0 mm/h
24.07.2017 - 03.35Uhr14.9 °C12.9 °C88 %0.0 W/m²0.0 km/hWest-NW0.0 km/hNorden1011.8 hPa0.0 mm0.0 mm/h
24.07.2017 - 03.40Uhr14.8 °C12.8 °C88 %0.0 W/m²0.9 km/hWest-NW1.8 km/hWest-NW1011.7 hPa0.0 mm0.0 mm/h
24.07.2017 - 03.45Uhr14.8 °C12.9 °C89 %0.0 W/m²1.0 km/hWest-NW4.0 km/hWest-NW1011.5 hPa0.0 mm0.0 mm/h
24.07.2017 - 03.50Uhr14.9 °C13.1 °C89 %0.0 W/m²0.4 km/hWest-NW1.8 km/hWest-NW1011.4 hPa0.0 mm0.0 mm/h
24.07.2017 - 03.55Uhr14.9 °C13.1 °C89 %0.0 W/m²0.8 km/hWest-NW1.8 km/hWest-NW1011.3 hPa0.0 mm0.0 mm/h
24.07.2017 - 04.00Uhr14.8 °C12.9 °C88 %0.0 W/m²0.0 km/hWest-NW0.0 km/hNorden1011.3 hPa0.0 mm0.0 mm/h
24.07.2017 - 04.05Uhr14.8 °C13.0 °C89 %0.0 W/m²0.3 km/hWest-NW1.8 km/hWest-NW1011.2 hPa0.0 mm0.0 mm/h
24.07.2017 - 04.10Uhr14.8 °C13.0 °C89 %0.0 W/m²0.6 km/hWest-NW1.8 km/hWest-NW1011.0 hPa0.0 mm0.0 mm/h
24.07.2017 - 04.15Uhr14.8 °C13.0 °C89 %0.0 W/m²1.1 km/hWest-NW4.0 km/hWest-NW1010.9 hPa0.0 mm0.0 mm/h
24.07.2017 - 04.20Uhr14.8 °C13.0 °C89 %0.0 W/m²0.3 km/hWest-NW1.8 km/hWest-NW1010.9 hPa0.0 mm0.0 mm/h
24.07.2017 - 04.25Uhr14.6 °C12.8 °C89 %0.0 W/m²0.3 km/hWest-NW1.8 km/hWest-NW1010.9 hPa0.0 mm0.0 mm/h
24.07.2017 - 04.30Uhr14.6 °C12.8 °C89 %0.0 W/m²0.8 km/hWest-NW1.8 km/hWest-NW1010.8 hPa0.0 mm0.0 mm/h
24.07.2017 - 04.35Uhr14.7 °C12.9 °C89 %0.0 W/m²1.5 km/hWest-NW4.0 km/hWest-NW1010.8 hPa0.0 mm0.0 mm/h
24.07.2017 - 04.40Uhr14.8 °C13.0 °C89 %0.0 W/m²2.4 km/hWest-NW5.8 km/hWest-NW1010.7 hPa0.0 mm0.0 mm/h
24.07.2017 - 04.45Uhr14.7 °C12.9 °C89 %0.0 W/m²2.6 km/hWest-NW5.8 km/hWest-NW1010.7 hPa0.0 mm0.0 mm/h
24.07.2017 - 04.50Uhr14.8 °C12.8 °C88 %0.0 W/m²1.0 km/hWest-NW4.0 km/hWest-NW1010.6 hPa0.0 mm0.0 mm/h
24.07.2017 - 04.55Uhr14.8 °C12.8 °C88 %0.0 W/m²0.5 km/hWest-NW1.8 km/hWest-NW1010.5 hPa0.0 mm0.0 mm/h
24.07.2017 - 05.00Uhr14.8 °C12.8 °C88 %0.0 W/m²0.6 km/hWest-NW1.8 km/hWest-NW1010.4 hPa0.0 mm0.0 mm/h
24.07.2017 - 05.05Uhr14.9 °C12.9 °C88 %0.0 W/m²1.0 km/hWest-NW4.0 km/hWest-NW1010.5 hPa0.0 mm0.0 mm/h
24.07.2017 - 05.10Uhr14.8 °C13.0 °C89 %0.0 W/m²2.1 km/hWest-NW4.0 km/hWest-NW1010.4 hPa0.2 mm0.0 mm/h
24.07.2017 - 05.15Uhr14.7 °C13.0 °C90 %0.0 W/m²0.8 km/hWest-NW1.8 km/hWest-NW1010.3 hPa0.0 mm0.0 mm/h
24.07.2017 - 05.20Uhr14.7 °C13.1 °C90 %0.0 W/m²1.2 km/hWest-NW4.0 km/hWest-NW1010.3 hPa0.2 mm1.0 mm/h
24.07.2017 - 05.25Uhr14.7 °C13.1 °C90 %0.0 W/m²0.8 km/hWest-NW1.8 km/hWest-NW1010.2 hPa0.0 mm1.0 mm/h
24.07.2017 - 05.30Uhr14.6 °C13.1 °C91 %0.0 W/m²0.5 km/hWest-NW1.8 km/hWest-NW1010.1 hPa0.0 mm1.0 mm/h
24.07.2017 - 05.35Uhr14.4 °C12.9 °C91 %0.0 W/m²2.3 km/hWest-NW5.8 km/hWest-NW1010.1 hPa0.0 mm0.8 mm/h
24.07.2017 - 05.40Uhr14.4 °C12.9 °C91 %0.0 W/m²0.7 km/hWest-NW1.8 km/hWest-NW1010.1 hPa0.0 mm0.0 mm/h
24.07.2017 - 05.45Uhr14.4 °C12.9 °C91 %0.0 W/m²0.3 km/hWest-NW1.8 km/hWest-NW1010.2 hPa0.0 mm0.0 mm/h
24.07.2017 - 05.50Uhr14.5 °C12.9 °C90 %0.0 W/m²0.0 km/hWest-NW0.0 km/hNorden1010.1 hPa0.0 mm0.0 mm/h
24.07.2017 - 05.55Uhr14.4 °C12.9 °C91 %0.0 W/m²1.4 km/hWest-NW4.0 km/hWest-NW1010.1 hPa0.0 mm0.0 mm/h
24.07.2017 - 06.00Uhr14.5 °C13.0 °C91 %0.0 W/m²0.9 km/hWest-NW1.8 km/hWest-NW1010.0 hPa0.0 mm0.0 mm/h
24.07.2017 - 06.05Uhr14.6 °C13.1 °C91 %0.0 W/m²1.0 km/hWest-NW4.0 km/hWest-NW1010.0 hPa0.0 mm0.0 mm/h
24.07.2017 - 06.10Uhr14.5 °C13.0 °C91 %0.0 W/m²0.7 km/hWest-NW1.8 km/hWest-NW1010.0 hPa0.0 mm0.0 mm/h
24.07.2017 - 06.15Uhr14.6 °C13.1 °C91 %0.0 W/m²0.0 km/hWest-NW0.0 km/hNorden1010.1 hPa0.0 mm0.0 mm/h
24.07.2017 - 06.20Uhr14.6 °C13.1 °C91 %0.0 W/m²0.2 km/hWest-NW1.8 km/hWest-NW1010.1 hPa0.0 mm0.0 mm/h
24.07.2017 - 06.25Uhr14.7 °C13.2 °C91 %0.0 W/m²1.2 km/hWest-NW4.0 km/hWest-NW1010.0 hPa0.0 mm0.0 mm/h
24.07.2017 - 06.30Uhr14.7 °C13.2 °C91 %7.0 W/m²2.3 km/hWest-NW4.0 km/hWest-NW1009.9 hPa0.0 mm0.0 mm/h
24.07.2017 - 06.35Uhr14.7 °C13.2 °C91 %14.0 W/m²1.5 km/hWest-NW4.0 km/hWest-NW1009.9 hPa0.0 mm0.0 mm/h
24.07.2017 - 06.40Uhr14.6 °C13.1 °C91 %16.0 W/m²0.3 km/hWest-NW1.8 km/hWest-NW1009.9 hPa0.0 mm0.0 mm/h
24.07.2017 - 06.45Uhr14.7 °C13.2 °C91 %14.0 W/m²0.7 km/hWest-NW1.8 km/hWest-NW1009.8 hPa0.0 mm0.0 mm/h
24.07.2017 - 06.50Uhr14.7 °C13.2 °C91 %7.0 W/m²2.1 km/hWest-NW5.8 km/hWest-NW1009.8 hPa0.0 mm0.0 mm/h
24.07.2017 - 06.55Uhr14.8 °C13.2 °C91 %7.0 W/m²3.8 km/hWest-NW5.8 km/hWest-NW1009.7 hPa0.0 mm0.0 mm/h
24.07.2017 - 07.00Uhr14.8 °C13.3 °C91 %11.0 W/m²3.0 km/hWest-NW5.8 km/hWest-NW1009.6 hPa0.0 mm0.0 mm/h
24.07.2017 - 07.05Uhr14.8 °C13.3 °C91 %12.0 W/m²0.9 km/hWest-NW4.0 km/hWest-NW1009.6 hPa0.0 mm0.0 mm/h
24.07.2017 - 07.10Uhr14.9 °C13.4 °C91 %16.0 W/m²0.6 km/hWest-NW1.8 km/hWest-NW1009.7 hPa0.2 mm0.0 mm/h
24.07.2017 - 07.15Uhr14.9 °C13.4 °C91 %23.0 W/m²0.6 km/hWest-NW1.8 km/hWest-NW1009.6 hPa0.2 mm3.0 mm/h
24.07.2017 - 07.20Uhr14.9 °C13.4 °C91 %39.0 W/m²0.3 km/hWest-NW1.8 km/hWest-NW1009.6 hPa0.0 mm3.0 mm/h
24.07.2017 - 07.25Uhr14.9 °C13.4 °C91 %51.0 W/m²1.7 km/hWest-NW4.0 km/hWest-NW1009.5 hPa0.2 mm1.4 mm/h
24.07.2017 - 07.30Uhr14.9 °C13.4 °C91 %62.0 W/m²1.3 km/hWest-NW4.0 km/hWest-NW1009.5 hPa0.0 mm1.4 mm/h
24.07.2017 - 07.35Uhr15.1 °C13.7 °C91 %65.0 W/m²0.0 km/hWest-NW0.0 km/hNorden1009.6 hPa0.0 mm1.2 mm/h
24.07.2017 - 07.40Uhr15.0 °C13.7 °C92 %69.0 W/m²0.3 km/hWest-NW1.8 km/hWest-NW1009.5 hPa0.2 mm0.8 mm/h
24.07.2017 - 07.45Uhr15.1 °C13.8 °C92 %62.0 W/m²0.8 km/hWest-NW1.8 km/hWest-NW1009.3 hPa0.0 mm0.8 mm/h
24.07.2017 - 07.50Uhr15.3 °C14.0 °C92 %58.0 W/m²0.0 km/hWest-NW0.0 km/hNorden1009.3 hPa0.0 mm0.8 mm/h
24.07.2017 - 07.55Uhr15.3 °C14.0 °C92 %60.0 W/m²0.0 km/hWest-NW0.0 km/hNorden1009.2 hPa0.0 mm0.8 mm/h
24.07.2017 - 08.00Uhr15.2 °C13.9 °C92 %65.0 W/m²0.5 km/hWest-NW1.8 km/hWest-NW1009.3 hPa0.0 mm0.0 mm/h
24.07.2017 - 08.05Uhr15.3 °C13.8 °C91 %54.0 W/m²1.0 km/hWest-NW4.0 km/hWest-NW1009.2 hPa0.0 mm0.0 mm/h
24.07.2017 - 08.10Uhr15.4 °C13.9 °C91 %83.0 W/m²1.1 km/hWest-NW4.0 km/hWest-NW1009.1 hPa0.0 mm0.0 mm/h
24.07.2017 - 08.15Uhr15.6 °C14.1 °C91 %105.0 W/m²2.4 km/hWest-NW5.8 km/hWest-NW1008.9 hPa0.0 mm0.0 mm/h
24.07.2017 - 08.20Uhr15.6 °C14.3 °C92 %167.0 W/m²2.6 km/hWest-NW4.0 km/hWest-NW1008.9 hPa0.0 mm0.0 mm/h